createdAt,value
2023-03-24T00:01:20.817Z,100287.47
2023-03-24T00:03:52.293Z,100277.00
2023-03-24T00:06:22.549Z,100277.94
2023-03-24T00:08:50.886Z,100277.66
2023-03-24T00:11:21.276Z,100267.25
2023-03-24T00:13:50.906Z,100276.91
2023-03-24T00:16:21.823Z,100261.31
2023-03-24T00:18:53.277Z,100268.28
2023-03-24T00:21:24.576Z,100260.78
2023-03-24T00:23:55.547Z,100276.06
2023-03-24T00:26:25.218Z,100262.22
2023-03-24T00:28:54.574Z,100269.09
2023-03-24T00:31:25.834Z,100268.88
2023-03-24T00:33:54.726Z,100252.56
2023-03-24T00:36:24.681Z,100259.97
2023-03-24T00:38:53.853Z,100246.53
2023-03-24T00:41:25.086Z,100241.81
2023-03-24T00:43:57.044Z,100257.50
2023-03-24T00:46:30.353Z,100248.09
2023-03-24T00:49:03.659Z,100239.66
2023-03-24T00:51:34.277Z,100238.75
2023-03-24T00:54:02.661Z,100235.66
2023-03-24T00:56:33.880Z,100234.09
2023-03-24T00:59:02.179Z,100225.44
2023-03-24T01:01:36.644Z,100221.75
2023-03-24T01:04:06.125Z,100215.78
2023-03-24T01:06:36.672Z,100214.59
2023-03-24T01:09:06.320Z,100219.47
2023-03-24T01:11:39.757Z,100210.22
2023-03-24T01:14:08.764Z,100215.78
2023-03-24T01:16:38.532Z,100195.97
2023-03-24T01:19:09.170Z,100197.22
2023-03-24T01:21:37.892Z,100190.25
2023-03-24T01:24:06.897Z,100186.88
2023-03-24T01:26:34.964Z,100176.72
2023-03-24T01:29:02.992Z,100178.50
2023-03-24T01:31:31.135Z,100175.50
2023-03-24T01:34:00.696Z,100174.03
2023-03-24T01:36:28.876Z,100166.28
2023-03-24T01:38:58.483Z,100154.19
2023-03-24T01:41:28.489Z,100144.19
2023-03-24T01:43:56.690Z,100140.97
2023-03-24T01:46:26.542Z,100118.50
2023-03-24T01:48:58.982Z,100124.50
2023-03-24T01:51:35.162Z,100128.69
2023-03-24T01:54:06.009Z,100136.97
2023-03-24T01:56:37.959Z,100136.03
2023-03-24T01:59:10.156Z,100140.41
2023-03-24T02:01:46.820Z,100127.53
2023-03-24T02:04:42.082Z,100120.19
2023-03-24T02:07:24.424Z,100115.81
2023-03-24T02:09:52.624Z,100116.44
2023-03-24T02:12:20.732Z,100101.63
2023-03-24T02:14:50.622Z,100096.03
2023-03-24T02:17:41.049Z,100093.94
2023-03-24T02:20:54.399Z,100093.34
2023-03-24T02:23:55.859Z,100083.13
2023-03-24T02:26:51.673Z,100084.50
2023-03-24T02:29:55.816Z,100078.22
2023-03-24T02:32:39.220Z,100070.91
2023-03-24T02:35:31.368Z,100072.44
2023-03-24T02:38:23.863Z,100067.03
2023-03-24T02:41:02.127Z,100057.03
2023-03-24T02:43:43.542Z,100052.97
2023-03-24T02:46:21.973Z,100066.63
2023-03-24T02:49:10.431Z,100071.94
2023-03-24T02:51:43.097Z,100065.84
2023-03-24T02:54:16.842Z,100068.03
2023-03-24T02:56:51.207Z,100074.28
2023-03-24T02:59:40.616Z,100061.84
2023-03-24T03:02:31.814Z,100058.34
2023-03-24T03:05:06.470Z,100052.28
2023-03-24T03:07:37.613Z,100051.53
2023-03-24T03:10:12.177Z,100042.16
2023-03-24T03:12:47.456Z,100035.19
2023-03-24T03:15:23.238Z,100043.59
2023-03-24T03:17:58.790Z,100042.16
2023-03-24T03:20:31.150Z,100037.47
2023-03-24T03:23:05.640Z,100025.50
2023-03-24T03:25:38.668Z,100032.50
2023-03-24T03:28:10.460Z,100037.25
2023-03-24T03:30:42.943Z,100021.38
2023-03-24T03:33:18.182Z,100017.63
2023-03-24T03:35:52.851Z,100013.00
2023-03-24T03:38:26.067Z,100012.41
2023-03-24T03:40:59.245Z,99999.13
2023-03-24T03:43:34.705Z,100006.63
2023-03-24T03:46:06.361Z,99994.81
2023-03-24T03:48:38.416Z,99994.22
2023-03-24T03:51:13.784Z,99995.44
2023-03-24T03:53:51.452Z,99989.69
2023-03-24T03:56:22.997Z,99988.09
2023-03-24T03:59:25.037Z,99989.78
2023-03-24T04:01:53.373Z,99983.19
2023-03-24T04:05:19.639Z,99981.56
2023-03-24T04:08:19.617Z,99975.97
2023-03-24T04:11:33.430Z,99961.94
2023-03-24T04:14:54.467Z,99956.19
2023-03-24T04:18:00.884Z,99951.78
2023-03-24T04:21:04.116Z,99957.22
2023-03-24T04:23:44.627Z,99939.03
2023-03-24T04:26:17.766Z,99947.78
2023-03-24T04:28:58.161Z,99946.75
2023-03-24T04:31:34.219Z,99944.59
2023-03-24T04:34:06.055Z,99930.97
2023-03-24T04:36:42.541Z,99934.00
2023-03-24T04:39:34.991Z,99920.81
2023-03-24T04:42:10.965Z,99919.78
2023-03-24T04:44:41.689Z,99923.09
2023-03-24T04:47:43.210Z,99917.50
2023-03-24T04:50:32.434Z,99913.44
2023-03-24T04:53:02.259Z,99909.44
2023-03-24T04:55:55.293Z,99909.06
2023-03-24T04:58:41.989Z,99910.25
2023-03-24T05:01:10.176Z,99895.13
2023-03-24T05:03:42.351Z,99905.75
2023-03-24T05:06:11.360Z,99908.84
2023-03-24T05:08:39.465Z,99898.72
2023-03-24T05:11:08.067Z,99901.56
2023-03-24T05:13:37.333Z,99889.59
2023-03-24T05:16:06.410Z,99892.19
2023-03-24T05:18:44.780Z,99894.41
2023-03-24T05:21:12.913Z,99899.78
2023-03-24T05:23:41.581Z,99888.72
2023-03-24T05:26:10.310Z,99891.56
2023-03-24T05:28:52.195Z,99890.72
2023-03-24T05:31:20.562Z,99888.50
2023-03-24T05:33:55.675Z,99886.06
2023-03-24T05:36:24.368Z,99892.78
2023-03-24T05:38:56.501Z,99892.19
2023-03-24T05:41:30.582Z,99882.78
2023-03-24T05:43:58.607Z,99894.50
2023-03-24T05:46:26.757Z,99893.81
2023-03-24T05:48:57.435Z,99881.75
2023-03-24T05:51:31.304Z,99885.84
2023-03-24T05:54:06.237Z,99874.56
2023-03-24T05:56:38.132Z,99872.34
2023-03-24T05:59:24.570Z,99872.34
2023-03-24T06:01:58.626Z,99877.16
2023-03-24T06:04:46.345Z,99877.41
2023-03-24T06:07:17.345Z,99866.81
2023-03-24T06:09:50.941Z,99867.34
2023-03-24T06:12:21.592Z,99862.44
2023-03-24T06:14:55.420Z,99862.81
2023-03-24T06:17:24.605Z,99868.75
2023-03-24T06:20:02.921Z,99861.22
2023-03-24T06:22:54.474Z,99842.84
2023-03-24T06:25:28.871Z,99838.38
2023-03-24T06:28:12.341Z,99832.88
2023-03-24T06:30:44.585Z,99831.50
2023-03-24T06:33:14.596Z,99834.69
2023-03-24T06:35:46.385Z,99824.81
2023-03-24T06:38:17.207Z,99822.47
2023-03-24T06:40:46.380Z,99830.91
2023-03-24T06:43:14.684Z,99825.97
2023-03-24T06:45:45.196Z,99837.59
2023-03-24T06:48:20.193Z,99829.19
2023-03-24T06:50:50.650Z,99829.88
2023-03-24T06:53:18.947Z,99827.84
2023-03-24T06:55:47.562Z,99816.41
2023-03-24T06:58:15.983Z,99815.41
2023-03-24T07:01:14.805Z,99812.53
2023-03-24T07:04:06.024Z,99811.19
2023-03-24T07:06:58.199Z,99804.47
2023-03-24T07:09:33.812Z,99807.47
2023-03-24T07:12:03.409Z,99793.13
2023-03-24T07:14:31.441Z,99789.78
2023-03-24T07:17:02.319Z,99791.81
2023-03-24T07:24:42.486Z,99776.16
2023-03-24T07:30:07.737Z,99771.13
2023-03-24T07:32:42.397Z,99766.72
2023-03-24T07:35:12.949Z,99765.81
2023-03-24T07:37:41.804Z,99764.91
2023-03-24T07:40:13.236Z,99754.16
2023-03-24T07:42:42.132Z,99771.59
2023-03-24T07:45:35.856Z,99765.03
2023-03-24T07:48:04.524Z,99763.78
2023-03-24T07:50:36.505Z,99765.41
2023-03-24T07:53:11.921Z,99776.75
2023-03-24T07:55:41.498Z,99772.78
2023-03-24T07:58:14.927Z,99778.91
2023-03-24T08:00:55.841Z,99780.00
2023-03-24T08:03:39.315Z,99778.09
2023-03-24T08:06:30.603Z,99764.38
2023-03-24T08:09:00.168Z,99762.84
2023-03-24T08:11:29.432Z,99774.44
2023-03-24T08:13:58.347Z,99775.53
2023-03-24T08:16:29.124Z,99769.31
2023-03-24T08:18:58.307Z,99767.56
2023-03-24T08:21:26.646Z,99770.66
2023-03-24T08:23:54.604Z,99777.38
2023-03-24T08:26:26.957Z,99772.00
2023-03-24T08:28:56.918Z,99777.72
2023-03-24T08:31:24.833Z,99769.97
2023-03-24T08:33:54.959Z,99768.81
2023-03-24T08:36:26.425Z,99769.31
2023-03-24T08:38:55.634Z,99762.22
2023-03-24T08:41:34.686Z,99750.25
2023-03-24T08:44:07.094Z,99766.63
2023-03-24T08:46:35.896Z,99773.66
2023-03-24T08:49:04.551Z,99769.84
2023-03-24T08:51:32.475Z,99757.50
2023-03-24T08:54:01.605Z,99757.28
2023-03-24T08:56:29.551Z,99765.91
2023-03-24T08:58:57.898Z,99766.41
2023-03-24T09:01:28.707Z,99768.50
2023-03-24T09:03:57.489Z,99778.31
2023-03-24T09:06:27.140Z,99767.03
2023-03-24T09:08:55.137Z,99780.09
2023-03-24T09:11:23.575Z,99785.50
2023-03-24T09:13:51.705Z,99785.31
2023-03-24T09:16:20.138Z,99786.72
2023-03-24T09:18:49.538Z,99785.13
2023-03-24T09:21:17.877Z,99777.88
2023-03-24T09:23:45.940Z,99786.03
2023-03-24T09:26:13.958Z,99793.41
2023-03-24T09:28:41.929Z,99782.25
2023-03-24T09:31:10.082Z,99801.28
2023-03-24T09:33:38.305Z,99794.72
2023-03-24T09:36:08.803Z,99794.97
2023-03-24T09:38:36.885Z,99796.78
2023-03-24T09:41:05.402Z,99799.81
2023-03-24T09:43:39.443Z,99792.09
2023-03-24T09:46:13.465Z,99785.03
2023-03-24T09:48:45.348Z,99790.00
2023-03-24T09:51:21.304Z,99798.75
2023-03-24T09:53:56.467Z,99789.91
2023-03-24T09:56:25.704Z,99783.50
2023-03-24T09:59:03.317Z,99791.13
2023-03-24T10:01:31.449Z,99796.50
2023-03-24T10:04:00.843Z,99799.50
2023-03-24T10:06:32.885Z,99807.81
2023-03-24T10:09:13.149Z,99796.53
2023-03-24T10:11:47.493Z,99813.19
2023-03-24T10:14:28.522Z,99790.94
2023-03-24T10:17:04.261Z,99803.91
2023-03-24T10:19:42.895Z,99795.78
2023-03-24T10:22:23.071Z,99810.63
2023-03-24T10:24:57.920Z,99805.84
2023-03-24T10:27:32.829Z,99803.41
2023-03-24T10:30:08.093Z,99789.72
2023-03-24T10:32:36.837Z,99789.63
2023-03-24T10:35:10.082Z,99791.59
2023-03-24T10:37:39.684Z,99777.88
2023-03-24T10:40:18.030Z,99783.44
2023-03-24T10:42:48.566Z,99786.53
2023-03-24T10:45:26.180Z,99797.50
2023-03-24T10:47:55.869Z,99794.16
2023-03-24T10:50:27.299Z,99792.44
2023-03-24T10:52:57.556Z,99781.25
2023-03-24T10:55:31.396Z,99798.16
2023-03-24T10:58:01.161Z,99794.31
2023-03-24T11:00:31.748Z,99794.28
2023-03-24T11:03:02.663Z,99787.53
2023-03-24T11:05:33.732Z,99794.28
2023-03-24T11:08:25.553Z,99797.44
2023-03-24T11:10:53.489Z,99806.00
2023-03-24T11:13:30.010Z,99800.72
2023-03-24T11:16:06.165Z,99798.59
2023-03-24T11:18:34.324Z,99807.66
2023-03-24T11:21:05.108Z,99799.69
2023-03-24T11:23:39.058Z,99785.41
2023-03-24T11:26:10.779Z,99789.50
2023-03-24T11:28:41.746Z,99791.06
2023-03-24T11:31:15.320Z,99800.03
2023-03-24T11:33:46.575Z,99790.41
2023-03-24T11:36:46.827Z,99780.06
2023-03-24T11:39:19.855Z,99788.00
2023-03-24T11:42:06.905Z,99791.75
2023-03-24T11:44:46.436Z,99792.81
2023-03-24T11:47:25.374Z,99786.41
2023-03-24T11:50:02.513Z,99797.59
2023-03-24T11:52:35.755Z,99808.19
2023-03-24T11:55:08.101Z,99796.78
2023-03-24T11:57:49.344Z,99800.91
2023-03-24T12:00:23.160Z,99808.56
2023-03-24T12:03:08.941Z,99811.09
2023-03-24T12:05:42.373Z,99794.16
2023-03-24T12:08:32.121Z,99794.56
2023-03-24T12:11:18.121Z,99788.63
2023-03-24T12:13:50.115Z,99785.81
2023-03-24T12:16:44.738Z,99769.69
2023-03-24T12:19:38.801Z,99789.88
2023-03-24T12:22:17.856Z,99786.13
2023-03-24T12:25:16.007Z,99797.41
2023-03-24T12:27:56.006Z,99797.91
2023-03-24T12:30:33.329Z,99808.00
2023-03-24T12:33:11.546Z,99813.25
2023-03-24T12:35:52.202Z,99829.50
2023-03-24T12:38:35.300Z,99818.09
2023-03-24T12:41:27.709Z,99833.19
2023-03-24T12:44:16.628Z,99824.13
2023-03-24T12:46:56.045Z,99819.28
2023-03-24T12:49:43.264Z,99812.50
2023-03-24T12:52:28.806Z,99791.44
2023-03-24T12:55:04.898Z,99799.16
2023-03-24T12:57:39.195Z,99811.22
2023-03-24T13:00:17.101Z,99813.78
2023-03-24T13:02:52.611Z,99832.31
2023-03-24T13:05:24.615Z,99830.16
2023-03-24T13:07:58.619Z,99823.50
2023-03-24T13:10:29.605Z,99823.91
2023-03-24T13:13:03.725Z,99826.22
2023-03-24T13:15:39.847Z,99824.84
2023-03-24T13:18:19.395Z,99826.56
2023-03-24T13:20:53.578Z,99835.78
2023-03-24T13:23:36.419Z,99855.75
2023-03-24T13:26:13.241Z,99877.97
2023-03-24T13:28:47.913Z,99882.34
2023-03-24T13:31:18.677Z,99850.09
2023-03-24T13:33:46.843Z,99865.06
2023-03-24T13:36:29.384Z,99876.25
2023-03-24T13:39:01.890Z,99882.25
2023-03-24T13:41:34.448Z,99901.50
2023-03-24T13:44:04.877Z,99914.00
2023-03-24T13:46:38.189Z,99931.38
2023-03-24T13:49:07.804Z,99943.88
2023-03-24T13:51:38.428Z,99938.53
2023-03-24T13:54:08.482Z,99933.31
2023-03-24T13:56:38.033Z,99937.22
2023-03-24T13:59:30.281Z,99951.63
2023-03-24T14:02:20.279Z,99946.41
2023-03-24T14:04:50.065Z,99955.84
2023-03-24T14:07:42.723Z,99970.16
2023-03-24T14:10:41.531Z,99988.38
2023-03-24T14:13:35.788Z,99932.00
2023-03-24T14:16:43.823Z,99946.63
2023-03-24T14:19:27.444Z,99949.84
2023-03-24T14:22:04.536Z,99939.88
2023-03-24T14:24:32.964Z,99939.50
2023-03-24T14:27:01.097Z,99909.88
2023-03-24T14:29:41.338Z,99904.13
2023-03-24T14:32:20.457Z,99873.44
2023-03-24T14:34:56.920Z,99841.13
2023-03-24T14:37:25.820Z,99818.59
2023-03-24T14:39:57.291Z,99836.47
2023-03-24T14:42:54.405Z,99844.09
2023-03-24T14:45:54.744Z,99863.03
2023-03-24T14:48:40.287Z,99869.38
2023-03-24T14:51:29.587Z,99861.50
2023-03-24T14:53:59.767Z,99872.88
2023-03-24T14:56:34.388Z,99876.69
2023-03-24T14:59:06.649Z,99881.34
2023-03-24T15:01:38.681Z,99894.00
2023-03-24T15:04:09.614Z,99880.31
2023-03-24T15:06:46.912Z,99887.13
2023-03-24T15:09:17.490Z,99887.75
2023-03-24T15:11:47.901Z,99882.56
2023-03-24T15:14:22.728Z,99890.44
2023-03-24T15:16:56.892Z,99885.72
2023-03-24T15:19:27.780Z,99874.31
2023-03-24T15:22:02.778Z,99880.31
2023-03-24T15:24:34.288Z,99870.22
2023-03-24T15:27:23.630Z,99871.91
2023-03-24T15:29:57.665Z,99870.03
2023-03-24T15:32:31.931Z,99876.94
2023-03-24T15:35:05.611Z,99873.84
2023-03-24T15:37:40.613Z,99882.84
2023-03-24T15:40:33.757Z,99882.38
2023-03-24T15:43:04.372Z,99894.81
2023-03-24T15:45:34.369Z,99881.78
2023-03-24T15:48:08.742Z,99891.22
2023-03-24T15:50:38.897Z,99883.50
2023-03-24T15:53:24.905Z,99890.41
2023-03-24T15:56:06.390Z,99898.81
2023-03-24T15:58:47.437Z,99892.69
2023-03-24T16:01:18.981Z,99900.97
2023-03-24T16:03:49.116Z,99899.22
2023-03-24T16:06:26.655Z,99898.28
2023-03-24T16:08:59.148Z,99890.97
2023-03-24T16:11:28.024Z,99880.97
2023-03-24T16:13:55.916Z,99883.63
2023-03-24T16:16:27.438Z,99877.19
2023-03-24T16:18:56.315Z,99876.22
2023-03-24T16:21:25.974Z,99887.69
2023-03-24T16:23:57.630Z,99886.06
2023-03-24T16:26:26.881Z,99888.09
2023-03-24T16:28:57.010Z,99902.09
2023-03-24T16:31:27.063Z,99902.59
2023-03-24T16:33:57.909Z,99909.81
2023-03-24T16:36:26.657Z,99903.16
2023-03-24T16:38:57.789Z,99903.81
2023-03-24T16:41:26.357Z,99906.34
2023-03-24T16:43:54.839Z,99910.06
2023-03-24T16:46:32.327Z,99915.88
2023-03-24T16:49:01.110Z,99912.41
2023-03-24T16:51:29.746Z,99916.94
2023-03-24T16:53:59.020Z,99917.22
2023-03-24T16:56:27.453Z,99917.22
2023-03-24T16:58:56.588Z,99923.84
2023-03-24T17:01:33.270Z,99929.59
2023-03-24T17:04:03.233Z,99941.38
2023-03-24T17:06:33.220Z,99950.16
2023-03-24T17:09:05.176Z,99946.53
2023-03-24T17:11:35.466Z,99932.28
2023-03-24T17:14:07.235Z,99939.13
2023-03-24T17:16:38.339Z,99932.00
2023-03-24T17:19:06.848Z,99928.66
2023-03-24T17:21:37.942Z,99939.13
2023-03-24T17:24:10.946Z,99946.91
2023-03-24T17:26:39.205Z,99960.22
2023-03-24T17:29:07.390Z,99961.06
2023-03-24T17:31:35.440Z,99958.91
2023-03-24T17:34:20.358Z,99963.78
2023-03-24T17:36:49.584Z,99959.44
2023-03-24T17:39:20.213Z,99968.84
2023-03-24T17:41:48.101Z,99961.97
2023-03-24T17:44:16.327Z,99972.59
2023-03-24T17:46:44.415Z,99980.31
2023-03-24T17:49:12.369Z,99982.00
2023-03-24T17:51:40.441Z,99985.38
2023-03-24T17:54:10.320Z,99987.25
2023-03-24T17:56:39.812Z,99997.66
2023-03-24T17:59:07.732Z,99997.16
2023-03-24T18:01:39.280Z,100003.03
2023-03-24T18:04:07.961Z,99997.84
2023-03-24T18:06:36.127Z,99994.31
2023-03-24T18:09:04.427Z,99991.09
2023-03-24T18:11:32.383Z,99984.38
2023-03-24T18:14:02.273Z,99978.63
2023-03-24T18:16:31.112Z,99977.28
2023-03-24T18:19:00.684Z,99984.38
2023-03-24T18:21:29.478Z,99991.41
2023-03-24T18:23:57.456Z,99993.44
2023-03-24T18:26:26.138Z,99991.25
2023-03-24T18:28:54.085Z,99996.47
2023-03-24T18:31:25.925Z,99999.16
2023-03-24T18:33:55.583Z,99991.91
2023-03-24T18:36:26.466Z,99989.91
2023-03-24T18:38:58.382Z,99998.78
2023-03-24T18:41:28.339Z,99993.03
2023-03-24T18:43:58.066Z,99995.16
2023-03-24T18:46:27.937Z,99999.44
2023-03-24T18:48:56.062Z,99994.00
2023-03-24T18:51:25.479Z,100005.09
2023-03-24T18:53:55.565Z,99998.50
2023-03-24T18:56:24.253Z,100002.34
2023-03-24T18:58:52.835Z,100005.50
2023-03-24T19:01:22.561Z,100009.75
2023-03-24T19:03:53.413Z,100012.44
2023-03-24T19:06:21.686Z,100013.81
2023-03-24T19:08:53.005Z,100015.41
2023-03-24T19:11:21.149Z,100009.53
2023-03-24T19:13:50.657Z,100022.50
2023-03-24T19:16:19.521Z,100017.66
2023-03-24T19:18:48.640Z,100030.41
2023-03-24T19:21:18.246Z,100056.75
2023-03-24T19:23:46.852Z,100073.78
2023-03-24T19:26:16.258Z,100075.31
2023-03-24T19:28:44.950Z,100069.00
2023-03-24T19:31:17.432Z,100030.59
2023-03-24T19:33:46.611Z,100023.22
2023-03-24T19:36:15.495Z,100024.47
2023-03-24T19:38:45.135Z,100032.19
2023-03-24T19:41:15.513Z,100042.63
2023-03-24T19:43:43.857Z,100044.00
2023-03-24T19:46:12.125Z,100044.47
2023-03-24T19:48:40.106Z,100047.09
2023-03-24T19:51:08.093Z,100051.16
2023-03-24T19:53:36.021Z,100067.78
2023-03-24T19:56:06.586Z,100079.75
2023-03-24T19:58:34.664Z,100076.59
2023-03-24T20:01:02.633Z,100071.34
2023-03-24T20:03:30.499Z,100060.75
2023-03-24T20:06:05.018Z,100067.28
2023-03-24T20:08:32.952Z,100081.66
2023-03-24T20:11:00.908Z,100083.66
2023-03-24T20:13:30.190Z,100080.19
2023-03-24T20:15:58.084Z,100085.53
2023-03-24T20:18:26.137Z,100068.22
2023-03-24T20:20:55.947Z,100063.97
2023-03-24T20:23:23.986Z,100074.69
2023-03-24T20:25:52.164Z,100071.53
2023-03-24T20:28:20.507Z,100069.50
2023-03-24T20:30:51.480Z,100076.38
2023-03-24T20:33:19.406Z,100078.84
2023-03-24T20:35:48.243Z,100089.91
2023-03-24T20:38:16.444Z,100081.22
2023-03-24T20:40:44.350Z,100078.91
2023-03-24T20:43:12.251Z,100078.91
2023-03-24T20:45:40.195Z,100076.16
2023-03-24T20:48:09.515Z,100083.44
2023-03-24T20:50:37.381Z,100079.28
2023-03-24T20:53:05.633Z,100090.41
2023-03-24T20:55:33.493Z,100088.06
2023-03-24T20:58:01.375Z,100080.84
2023-03-24T21:00:29.850Z,100080.59
2023-03-24T21:02:57.783Z,100092.59
2023-03-24T21:05:28.131Z,100094.38
2023-03-24T21:07:56.050Z,100092.03
2023-03-24T21:10:24.279Z,100092.66
2023-03-24T21:12:52.795Z,100083.19
2023-03-24T21:15:23.254Z,100089.66
2023-03-24T21:17:51.726Z,100091.72
2023-03-24T21:20:20.878Z,100092.56
2023-03-24T21:22:55.005Z,100102.53
2023-03-24T21:25:25.016Z,100101.22
2023-03-24T21:27:53.684Z,100091.53
2023-03-24T21:30:23.651Z,100095.47
2023-03-24T21:32:53.641Z,100097.59
2023-03-24T21:35:21.744Z,100110.59
2023-03-24T21:37:53.578Z,100107.50
2023-03-24T21:40:23.874Z,100102.59
2023-03-24T21:42:53.249Z,100108.50
2023-03-24T21:45:23.210Z,100101.13
2023-03-24T21:47:51.212Z,100101.06
2023-03-24T21:50:23.237Z,100089.19
2023-03-24T21:52:54.655Z,100082.03
2023-03-24T21:55:25.308Z,100084.22
2023-03-24T21:57:53.163Z,100090.25
2023-03-24T22:00:22.800Z,100092.66
2023-03-24T22:02:53.157Z,100093.22
2023-03-24T22:05:22.727Z,100090.22
2023-03-24T22:07:52.810Z,100098.81
2023-03-24T22:10:24.592Z,100088.38
2023-03-24T22:12:53.896Z,100091.41
2023-03-24T22:15:22.566Z,100089.91
2023-03-24T22:17:50.919Z,100086.97
2023-03-24T22:20:19.179Z,100092.22
2023-03-24T22:22:47.176Z,100090.88
2023-03-24T22:25:18.738Z,100089.00
2023-03-24T22:27:50.080Z,100089.25
2023-03-24T22:30:19.885Z,100082.25
2023-03-24T22:32:47.804Z,100091.72
2023-03-24T22:35:16.058Z,100084.94
2023-03-24T22:37:43.985Z,100086.13
2023-03-24T22:40:11.961Z,100086.03
2023-03-24T22:42:41.231Z,100079.50
2023-03-24T22:45:10.057Z,100080.59
2023-03-24T22:47:37.964Z,100075.22
2023-03-24T22:50:08.163Z,100071.88
2023-03-24T22:52:36.233Z,100074.94
2023-03-24T22:55:04.182Z,100071.75
2023-03-24T22:57:32.075Z,100075.88
2023-03-24T23:00:02.000Z,100072.06
2023-03-24T23:02:30.786Z,100069.13
2023-03-24T23:04:58.937Z,100065.34
2023-03-24T23:07:28.140Z,100073.78
2023-03-24T23:09:59.303Z,100071.69
2023-03-24T23:12:28.040Z,100082.41
2023-03-24T23:14:55.946Z,100085.00
2023-03-24T23:17:25.381Z,100088.84
2023-03-24T23:19:54.277Z,100084.88
2023-03-24T23:22:22.312Z,100081.19
2023-03-24T23:25:00.369Z,100075.28
2023-03-24T23:27:34.571Z,100069.00
2023-03-24T23:30:02.901Z,100080.75
2023-03-24T23:32:35.266Z,100079.69
2023-03-24T23:35:03.982Z,100077.94
2023-03-24T23:37:32.556Z,100084.72
2023-03-24T23:40:02.408Z,100073.13
2023-03-24T23:42:33.311Z,100076.22
2023-03-24T23:45:01.316Z,100086.31
2023-03-24T23:47:32.629Z,100089.78
2023-03-24T23:50:02.248Z,100077.09
2023-03-24T23:52:31.308Z,100077.69
2023-03-24T23:54:59.505Z,100073.88
2023-03-24T23:57:27.491Z,100075.13
2023-03-24T23:59:55.399Z,100074.56
